Time;durP1;ratioP1;P1;durP2;ratioP2;P2;SDS_P1;SDS_P2;PMS_P1;PMS_P2;Temp;Humidity;BMP_temperature;BMP_pressure;BME280_temperature;BME280_humidity;BME280_pressure;Samples;Min_cycle;Max_cycle;Signal;HPM_P1;HPM_P2
2021/12/17 00:04:55;;;;;;;18.98;8.25;;;8.80;57.80;;;;;;6245880;28;20026;-67
2021/12/17 00:07:57;;;;;;;19.67;7.90;;;8.70;57.70;;;;;;6240139;28;20033;-67
2021/12/17 00:10:58;;;;;;;19.83;8.73;;;8.70;57.70;;;;;;6246699;28;20034;-68
2021/12/17 00:13:59;;;;;;;17.23;7.10;;;8.70;57.60;;;;;;6247891;28;20045;-68
2021/12/17 00:17:03;;;;;;;20.75;7.40;;;8.70;57.60;;;;;;6248250;28;20123;-69
2021/12/17 00:53:01;;;;;;;15.32;5.45;;;8.60;57.00;;;;;;6245303;28;20082;-68
2021/12/17 00:56:03;;;;;;;9.90;4.40;;;8.60;57.00;;;;;;6245047;28;20038;-68
2021/12/17 00:59:06;;;;;;;19.25;5.32;;;8.60;57.00;;;;;;6216468;28;20060;-68
2021/12/17 01:02:14;;;;;;;11.00;5.57;;;8.60;56.90;;;;;;6202399;28;20038;-68
2021/12/17 01:05:23;;;;;;;11.90;4.97;;;8.70;57.00;;;;;;6195181;28;20125;-68
2021/12/17 01:08:24;;;;;;;;;;;8.70;56.70;;;;;;6197360;28;20105;-69
2021/12/17 01:11:26;;;;;;;14.82;4.47;;;8.70;56.70;;;;;;6180901;28;19960;-68
2021/12/17 01:15:00;;;;;;;10.18;3.88;;;8.70;56.40;;;;;;6190657;28;20346;-68
2021/12/17 01:18:35;;;;;;;10.05;4.85;;;8.60;56.40;;;;;;6134800;28;20058;-68
2021/12/17 01:25:08;;;;;;;10.65;5.00;;;8.60;56.30;;;;;;6180025;28;20045;-69
2021/12/17 01:35:43;;;;;;;12.43;5.38;;;8.50;56.30;;;;;;6146107;28;20458;-69
2021/12/17 01:42:16;;;;;;;10.82;5.00;;;8.50;56.30;;;;;;6147115;28;20047;-68
2021/12/17 01:45:17;;;;;;;9.13;4.55;;;8.40;56.30;;;;;;6164365;28;20532;-68
2021/12/17 01:48:23;;;;;;;11.88;4.53;;;8.40;56.30;;;;;;6147843;28;20449;-69
2021/12/17 02:01:27;;;;;;;10.13;3.90;;;8.30;56.20;;;;;;6178392;28;20113;-68
2021/12/17 02:04:30;;;;;;;10.85;4.60;;;8.30;56.20;;;;;;6154739;28;20388;-68
2021/12/17 02:07:31;;;;;;;9.52;4.00;;;8.30;56.20;;;;;;6196419;28;20053;-70
2021/12/17 02:33:44;;;;;;;9.55;4.15;;;8.10;55.90;;;;;;6192359;28;20038;-69
2021/12/17 02:36:47;;;;;;;12.57;4.80;;;8.20;56.10;;;;;;6177548;28;20419;-67
2021/12/17 02:45:58;;;;;;;9.85;3.70;;;8.20;56.00;;;;;;6178262;28;20034;-67
2021/12/17 02:48:59;;;;;;;8.57;3.60;;;8.20;55.90;;;;;;6235756;28;20093;-68
2021/12/17 02:52:04;;;;;;;10.13;4.07;;;8.20;55.90;;;;;;6241826;28;20037;-67
2021/12/17 02:55:07;;;;;;;9.80;4.57;;;8.20;55.90;;;;;;6260362;28;20111;-68
2021/12/17 02:58:09;;;;;;;10.50;4.00;;;8.20;55.80;;;;;;6247753;28;20034;-68
2021/12/17 03:01:12;;;;;;;10.23;4.28;;;8.20;55.80;;;;;;6268796;28;20032;-68
2021/12/17 03:04:15;;;;;;;9.63;4.18;;;8.30;55.80;;;;;;6230996;28;20033;-67
2021/12/17 03:07:16;;;;;;;9.05;3.75;;;8.30;55.70;;;;;;6248074;28;20044;-67
2021/12/17 03:10:18;;;;;;;9.30;3.65;;;8.30;55.50;;;;;;6248466;28;20172;-67
2021/12/17 03:13:23;;;;;;;7.13;3.65;;;8.30;55.40;;;;;;6249425;28;20033;-67
2021/12/17 03:16:43;;;;;;;7.85;4.13;;;8.30;55.30;;;;;;6249697;28;20037;-67
2021/12/17 03:26:22;;;;;;;8.82;3.90;;;8.30;55.20;;;;;;6274083;28;20044;-68
2021/12/17 03:29:23;;;;;;;9.27;3.85;;;8.30;55.10;;;;;;6260188;28;20350;-66
2021/12/17 03:32:30;;;;;;;9.77;4.18;;;8.30;55.30;;;;;;6247071;28;20033;-67
2021/12/17 03:35:32;;;;;;;11.10;3.90;;;8.30;55.30;;;;;;6231977;28;20041;-67
2021/12/17 03:38:33;;;;;;;7.88;3.35;;;8.30;55.30;;;;;;6250436;28;20053;-67
2021/12/17 03:41:37;;;;;;;11.32;4.03;;;8.30;55.30;;;;;;6247518;28;20107;-67
2021/12/17 03:44:39;;;;;;;16.58;5.25;;;8.30;55.20;;;;;;6248804;28;20025;-67
2021/12/17 03:47:50;;;;;;;7.00;3.20;;;8.30;55.20;;;;;;6232019;28;20025;-67
2021/12/17 03:50:55;;;;;;;7.72;4.03;;;8.30;55.10;;;;;;6260006;28;20040;-68
2021/12/17 03:53:59;;;;;;;6.93;2.95;;;8.20;55.10;;;;;;6256797;28;20112;-67
2021/12/17 03:57:07;;;;;;;13.07;4.05;;;8.10;55.10;;;;;;6274320;28;20515;-68
2021/12/17 04:00:11;;;;;;;12.75;5.05;;;8.00;55.20;;;;;;6274303;28;20036;-68
2021/12/17 04:03:18;;;;;;;7.72;3.15;;;8.00;55.40;;;;;;6260651;28;20041;-69
2021/12/17 04:06:24;;;;;;;7.90;3.70;;;7.90;55.60;;;;;;6249315;28;20042;-68
2021/12/17 04:09:37;;;;;;;9.80;4.10;;;8.00;56.30;;;;;;6250518;28;20477;-68
2021/12/17 04:16:06;;;;;;;12.38;4.03;;;8.00;55.70;;;;;;6249088;28;20119;-68
2021/12/17 04:19:08;;;;;;;13.65;4.40;;;7.90;55.70;;;;;;6223978;28;20037;-68
2021/12/17 04:22:09;;;;;;;10.70;4.13;;;7.90;55.80;;;;;;6245733;28;20045;-68
2021/12/17 04:25:10;;;;;;;9.15;4.43;;;8.00;55.80;;;;;;6250590;28;20041;-68
2021/12/17 04:28:12;;;;;;;10.48;4.35;;;8.00;55.70;;;;;;6232689;28;20131;-68
2021/12/17 04:31:14;;;;;;;10.40;4.20;;;8.00;55.70;;;;;;6232290;28;20030;-68
2021/12/17 04:34:18;;;;;;;8.65;4.18;;;7.90;55.80;;;;;;6247219;28;20037;-68
2021/12/17 04:37:19;;;;;;;8.70;4.95;;;7.90;55.80;;;;;;6243297;28;20030;-68
2021/12/17 04:40:30;;;;;;;8.90;4.00;;;7.90;55.80;;;;;;6221534;28;20030;-68
2021/12/17 04:43:42;;;;;;;10.07;5.00;;;7.90;55.90;;;;;;6223562;28;20049;-68
2021/12/17 04:46:55;;;;;;;9.48;4.05;;;7.90;55.90;;;;;;6222931;28;20030;-68
2021/12/17 05:00:21;;;;;;;13.23;4.65;;;7.90;55.80;;;;;;6270773;28;20040;-68
2021/12/17 05:03:31;;;;;;;9.35;4.22;;;7.90;55.80;;;;;;6215732;28;20100;-68
2021/12/17 05:06:32;;;;;;;7.78;4.20;;;8.00;55.80;;;;;;6196926;28;20081;-68
2021/12/17 05:09:47;;;;;;;9.65;3.95;;;8.00;56.40;;;;;;6218420;28;20038;-68
2021/12/17 05:22:37;;;;;;;8.55;4.10;;;7.90;55.70;;;;;;6219009;28;20038;-68
2021/12/17 05:25:38;;;;;;;12.10;4.50;;;7.90;55.80;;;;;;6185901;28;20122;-68
2021/12/17 05:28:40;;;;;;;10.25;4.40;;;8.00;55.90;;;;;;6207242;28;20037;-68
2021/12/17 05:31:42;;;;;;;11.75;3.50;;;8.00;56.00;;;;;;6243547;28;20030;-68
2021/12/17 05:34:44;;;;;;;13.30;4.72;;;8.10;55.90;;;;;;6225740;28;20064;-69
2021/12/17 05:37:47;;;;;;;15.00;5.28;;;8.10;55.80;;;;;;6225825;28;20080;-68
2021/12/17 05:40:51;;;;;;;17.08;4.18;;;8.10;55.70;;;;;;6227220;28;20033;-68
2021/12/17 05:43:56;;;;;;;12.38;4.82;;;8.10;55.60;;;;;;6228028;28;20041;-68
2021/12/17 05:46:58;;;;;;;9.18;3.72;;;8.10;55.70;;;;;;6242468;28;20056;-68
2021/12/17 05:50:03;;;;;;;9.55;4.35;;;8.10;55.90;;;;;;6247975;28;20490;-68
2021/12/17 05:53:05;;;;;;;8.55;4.15;;;8.10;55.80;;;;;;6242389;28;20037;-68
2021/12/17 05:56:07;;;;;;;9.35;4.20;;;8.10;55.70;;;;;;6270543;28;20510;-68
2021/12/17 05:59:21;;;;;;;12.55;5.43;;;8.10;55.70;;;;;;6270636;28;20537;-70
2021/12/17 06:02:23;;;;;;;10.60;4.53;;;8.10;55.80;;;;;;6265078;28;20087;-69
2021/12/17 06:05:29;;;;;;;11.15;4.22;;;8.10;55.80;;;;;;6246642;28;20041;-68
2021/12/17 06:08:30;;;;;;;11.75;5.10;;;8.20;55.80;;;;;;6246178;28;20029;-69
2021/12/17 06:11:33;;;;;;;9.20;4.53;;;8.20;55.70;;;;;;6246616;28;20053;-69
2021/12/17 06:14:34;;;;;;;12.65;4.10;;;8.10;55.60;;;;;;6229996;28;20211;-68
2021/12/17 06:17:36;;;;;;;8.90;5.07;;;8.10;55.60;;;;;;6222646;28;20117;-69
2021/12/17 06:20:37;;;;;;;13.55;5.18;;;8.10;55.60;;;;;;6244480;28;20087;-69
2021/12/17 06:23:38;;;;;;;11.30;4.82;;;8.10;55.70;;;;;;6265130;28;20465;-69
2021/12/17 06:26:39;;;;;;;9.40;5.00;;;8.10;55.80;;;;;;6246415;28;20077;-68
2021/12/17 06:29:41;;;;;;;9.02;4.72;;;8.00;55.80;;;;;;6254400;28;20090;-68
2021/12/17 06:32:47;;;;;;;9.35;3.88;;;8.00;55.80;;;;;;6250428;28;20514;-67
2021/12/17 06:35:50;;;;;;;12.18;3.92;;;8.00;55.80;;;;;;6253929;28;20046;-68
2021/12/17 06:38:51;;;;;;;13.85;5.05;;;7.90;55.90;;;;;;6254536;28;20044;-68
2021/12/17 06:41:55;;;;;;;11.77;5.38;;;7.90;56.00;;;;;;6225658;28;20038;-68
2021/12/17 06:45:02;;;;;;;13.20;5.75;;;7.80;56.00;;;;;;6210348;28;20084;-70
2021/12/17 06:48:04;;;;;;;14.60;5.53;;;7.80;56.30;;;;;;6225543;28;20048;-68
2021/12/17 07:38:46;;;;;;;11.48;5.57;;;8.40;55.50;;;;;;6227717;28;20354;-69
2021/12/17 07:42:06;;;;;;;14.90;6.63;;;8.40;55.40;;;;;;6243406;28;20038;-69
2021/12/17 07:45:13;;;;;;;16.63;6.75;;;8.40;55.50;;;;;;6247234;28;20033;-69
2021/12/17 07:48:27;;;;;;;26.83;6.18;;;8.50;55.70;;;;;;6241010;28;20091;-69
2021/12/17 07:51:46;;;;;;;14.57;6.75;;;8.50;55.70;;;;;;6245523;28;20040;-69
2021/12/17 07:54:53;;;;;;;22.98;6.80;;;8.50;55.60;;;;;;6269907;28;20041;-68
2021/12/17 07:57:54;;;;;;;16.25;7.20;;;8.50;55.70;;;;;;6268819;28;20118;-68
2021/12/17 08:01:03;;;;;;;17.23;6.97;;;8.50;55.80;;;;;;6268977;28;20495;-69
2021/12/17 08:04:06;;;;;;;17.38;6.78;;;8.60;55.80;;;;;;6248619;28;20206;-69
2021/12/17 08:07:26;;;;;;;16.23;6.20;;;8.60;55.80;;;;;;6243906;28;20033;-68
2021/12/17 08:10:27;;;;;;;14.18;6.00;;;8.60;55.80;;;;;;6244101;28;20347;-68
2021/12/17 08:13:32;;;;;;;18.50;6.45;;;8.60;55.70;;;;;;6244243;28;20033;-69
2021/12/17 08:16:48;;;;;;;18.13;7.35;;;8.60;55.60;;;;;;6227792;28;20508;-68
2021/12/17 08:32:43;;;;;;;17.30;6.32;;;8.80;55.20;;;;;;6244099;28;20037;-68
2021/12/17 08:35:44;;;;;;;14.63;6.13;;;8.80;55.10;;;;;;6200441;28;1281636;-68
2021/12/17 08:38:55;;;;;;;14.30;5.80;;;8.80;55.00;;;;;;6245882;28;20041;-67
2021/12/17 08:42:03;;;;;;;11.77;5.20;;;8.80;54.90;;;;;;6245677;28;20053;-69
2021/12/17 08:45:08;;;;;;;12.90;6.97;;;8.80;54.80;;;;;;6229354;28;20034;-69
2021/12/17 08:48:24;;;;;;;18.92;6.40;;;8.80;54.80;;;;;;6246973;28;20095;-69
2021/12/17 08:51:37;;;;;;;11.18;5.38;;;8.90;54.80;;;;;;6260158;28;20108;-69
2021/12/17 08:54:38;;;;;;;16.00;5.43;;;8.90;54.70;;;;;;6270971;28;20024;-68
2021/12/17 08:57:40;;;;;;;21.33;6.85;;;8.80;54.40;;;;;;6249696;28;20116;-70
2021/12/17 09:00:43;;;;;;;14.65;6.00;;;8.80;54.50;;;;;;6268573;28;20069;-68
2021/12/17 09:03:45;;;;;;;13.10;5.85;;;8.70;54.50;;;;;;6235797;28;20045;-69
2021/12/17 09:07:00;;;;;;;16.50;6.05;;;8.70;54.40;;;;;;6230153;28;20107;-68
2021/12/17 09:10:05;;;;;;;11.93;5.95;;;8.60;54.30;;;;;;6228532;28;20034;-68
2021/12/17 09:13:07;;;;;;;13.93;6.07;;;8.60;54.50;;;;;;6246368;28;20066;-69
2021/12/17 09:16:09;;;;;;;17.17;6.13;;;8.60;54.70;;;;;;6234211;28;20041;-69
2021/12/17 09:19:12;;;;;;;14.25;6.28;;;8.60;54.60;;;;;;6225819;28;20040;-69
2021/12/17 09:22:22;;;;;;;17.08;6.30;;;8.60;54.50;;;;;;6265465;28;20036;-68
2021/12/17 09:25:28;;;;;;;16.15;5.72;;;8.60;54.50;;;;;;6270770;28;20056;-68
2021/12/17 09:28:36;;;;;;;10.75;5.47;;;8.60;54.60;;;;;;6269276;28;20059;-68
2021/12/17 09:31:40;;;;;;;13.23;5.50;;;8.60;54.60;;;;;;6270269;28;20044;-70
2021/12/17 09:34:41;;;;;;;18.70;6.63;;;8.70;54.70;;;;;;6244803;28;20069;-68
2021/12/17 09:37:42;;;;;;;10.93;5.75;;;8.70;54.60;;;;;;6228822;28;20047;-68
2021/12/17 09:40:43;;;;;;;15.30;5.57;;;8.80;54.50;;;;;;6229497;28;20056;-68
2021/12/17 09:43:45;;;;;;;18.65;6.10;;;8.80;54.40;;;;;;6245606;28;20038;-69
2021/12/17 09:46:48;;;;;;;20.17;7.57;;;8.90;54.90;;;;;;6246359;28;20087;-68
2021/12/17 09:49:54;;;;;;;21.00;6.13;;;8.90;54.20;;;;;;6244962;28;20115;-69
2021/12/17 09:52:56;;;;;;;12.48;5.93;;;9.00;54.00;;;;;;6203954;28;20042;-69
2021/12/17 09:55:57;;;;;;;21.88;8.98;;;9.00;54.00;;;;;;6219798;28;20042;-69
2021/12/17 09:58:58;;;;;;;16.33;6.20;;;9.10;53.90;;;;;;6206489;28;20049;-69
2021/12/17 10:01:59;;;;;;;16.60;6.03;;;9.00;53.80;;;;;;6221307;28;20117;-70
2021/12/17 10:05:00;;;;;;;11.25;5.90;;;9.00;53.80;;;;;;6240444;28;20033;-69
2021/12/17 10:08:10;;;;;;;13.30;5.20;;;9.10;53.80;;;;;;6244091;28;20034;-69
2021/12/17 10:11:15;;;;;;;16.00;6.57;;;9.10;53.70;;;;;;6243911;28;20039;-68
2021/12/17 10:14:24;;;;;;;16.75;5.88;;;9.10;53.60;;;;;;6244981;28;20417;-68
2021/12/17 10:17:25;;;;;;;15.68;7.43;;;9.10;53.50;;;;;;6244877;28;20034;-69
2021/12/17 10:20:47;;;;;;;11.77;6.45;;;9.20;53.50;;;;;;6239880;28;20418;-69
2021/12/17 10:23:51;;;;;;;14.82;5.47;;;9.10;53.30;;;;;;6255139;28;20124;-68
2021/12/17 10:26:52;;;;;;;12.57;6.43;;;9.10;53.30;;;;;;6270556;28;20052;-68
2021/12/17 10:29:55;;;;;;;11.23;5.65;;;9.10;53.40;;;;;;6242386;28;20061;-69
2021/12/17 10:32:58;;;;;;;16.52;5.85;;;9.10;53.50;;;;;;6228647;28;20041;-69
2021/12/17 10:36:03;;;;;;;13.05;5.22;;;9.10;53.40;;;;;;6244350;28;20038;-68
2021/12/17 10:39:24;;;;;;;9.73;4.63;;;9.20;53.40;;;;;;6228217;28;20053;-69
2021/12/17 10:42:39;;;;;;;20.45;6.80;;;9.20;53.20;;;;;;6236409;28;20036;-68
2021/12/17 10:45:44;;;;;;;11.00;5.32;;;9.20;53.20;;;;;;6241905;28;20034;-70
2021/12/17 10:51:55;;;;;;;13.23;5.93;;;9.20;53.10;;;;;;6240356;28;20101;-70
2021/12/17 10:55:15;;;;;;;16.33;6.75;;;9.20;53.20;;;;;;6217621;28;20034;-68
2021/12/17 10:58:16;;;;;;;16.00;5.95;;;9.30;53.20;;;;;;6226839;28;20037;-68
2021/12/17 11:01:18;;;;;;;14.27;6.00;;;9.40;52.90;;;;;;6267529;28;20465;-70
2021/12/17 11:04:24;;;;;;;14.45;6.07;;;9.40;52.70;;;;;;6245817;28;20099;-68
2021/12/17 11:07:26;;;;;;;12.43;4.88;;;9.40;52.70;;;;;;6242572;28;20462;-69
2021/12/17 11:10:32;;;;;;;14.85;6.25;;;9.40;52.70;;;;;;6244766;28;20040;-69
2021/12/17 11:13:33;;;;;;;15.02;6.25;;;9.50;52.70;;;;;;6243688;28;20403;-70
2021/12/17 11:16:38;;;;;;;20.40;7.30;;;9.50;52.60;;;;;;6227672;28;20529;-70
2021/12/17 11:19:40;;;;;;;22.77;8.18;;;9.60;52.60;;;;;;6227469;28;20454;-70
2021/12/17 11:22:44;;;;;;;22.85;7.47;;;9.60;52.60;;;;;;6264265;28;20510;-68
2021/12/17 11:25:53;;;;;;;10.73;6.03;;;9.60;52.50;;;;;;6270161;28;20454;-69
2021/12/17 11:29:00;;;;;;;18.02;6.28;;;9.60;52.40;;;;;;6272894;28;20106;-69
2021/12/17 11:32:04;;;;;;;28.90;9.53;;;9.60;52.30;;;;;;6254316;28;20366;-70
2021/12/17 11:35:06;;;;;;;19.98;6.43;;;9.60;52.30;;;;;;6230511;28;20130;-70
2021/12/17 11:38:15;;;;;;;14.70;6.65;;;9.60;52.50;;;;;;6231380;28;20040;-70
2021/12/17 11:41:25;;;;;;;14.68;6.50;;;9.60;52.40;;;;;;6248460;28;20033;-74
2021/12/17 11:44:39;;;;;;;15.00;6.13;;;9.70;52.30;;;;;;6231479;28;20378;-72
2021/12/17 11:47:41;;;;;;;18.73;6.78;;;9.60;52.30;;;;;;6248186;28;20037;-69
2021/12/17 11:50:43;;;;;;;16.85;7.60;;;9.60;52.40;;;;;;6254660;28;20122;-70
2021/12/17 11:54:07;;;;;;;13.70;6.57;;;9.60;52.30;;;;;;6231680;28;20064;-68
2021/12/17 11:57:12;;;;;;;16.25;6.78;;;9.60;52.20;;;;;;6266855;28;20072;-70
2021/12/17 12:00:15;;;;;;;22.27;7.95;;;9.50;52.20;;;;;;6272797;28;20041;-69
2021/12/17 12:03:24;;;;;;;16.38;7.15;;;9.50;52.50;;;;;;6258573;28;20045;-69
2021/12/17 12:06:34;;;;;;;16.33;6.57;;;9.40;52.60;;;;;;6247442;28;20029;-69
2021/12/17 12:09:59;;;;;;;18.73;6.55;;;9.50;52.60;;;;;;6244985;28;20439;-69
2021/12/17 12:13:00;;;;;;;16.38;7.60;;;9.60;52.60;;;;;;6263115;28;20102;-70
2021/12/17 12:16:07;;;;;;;18.10;7.53;;;9.60;52.40;;;;;;6272024;28;20060;-70
2021/12/17 12:19:15;;;;;;;21.38;7.32;;;9.60;52.40;;;;;;6271434;28;20065;-70
2021/12/17 12:22:30;;;;;;;14.32;6.63;;;9.60;52.30;;;;;;6266073;28;20037;-69
2021/12/17 12:25:31;;;;;;;17.23;7.75;;;9.70;52.40;;;;;;6248439;28;20108;-70
2021/12/17 12:28:47;;;;;;;17.17;7.07;;;9.70;52.30;;;;;;6244660;28;20463;-69
2021/12/17 12:31:54;;;;;;;17.08;8.02;;;9.80;52.30;;;;;;6272672;28;20021;-70
2021/12/17 12:35:07;;;;;;;16.23;7.22;;;9.90;52.40;;;;;;6228243;28;20149;-70
2021/12/17 12:38:20;;;;;;;21.00;6.72;;;10.00;52.20;;;;;;6244556;28;20116;-69
2021/12/17 12:41:39;;;;;;;16.27;7.32;;;10.10;51.90;;;;;;6247664;28;20034;-68
2021/12/17 12:44:46;;;;;;;;;;;10.10;51.80;;;;;;6249746;28;20065;-68
2021/12/17 12:47:54;;;;;;;16.65;7.45;;;10.10;51.90;;;;;;6247957;28;19913;-69
2021/12/17 12:51:25;;;;;;;16.05;7.05;;;10.20;51.80;;;;;;6268578;28;20053;-69
2021/12/17 12:54:27;;;;;;;18.30;7.50;;;10.20;51.80;;;;;;6204289;28;20038;-70
2021/12/17 12:57:31;;;;;;;15.30;7.88;;;10.30;51.60;;;;;;6199735;28;20367;-70
2021/12/17 13:00:51;;;;;;;20.45;7.78;;;10.30;51.50;;;;;;6173766;28;20120;-68
2021/12/17 13:03:52;;;;;;;18.00;7.85;;;10.30;51.50;;;;;;6173814;28;20050;-68
2021/12/17 13:06:53;;;;;;;26.80;7.25;;;10.30;51.30;;;;;;6178747;28;20042;-70
2021/12/17 13:09:54;;;;;;;16.30;8.32;;;10.30;51.30;;;;;;6192393;28;20467;-68
2021/12/17 13:13:03;;;;;;;18.00;8.00;;;10.30;51.30;;;;;;6194671;28;20172;-69
2021/12/17 13:16:41;;;;;;;14.45;7.13;;;10.30;51.30;;;;;;6194415;28;20104;-69
2021/12/17 13:23:15;;;;;;;19.05;7.35;;;10.30;51.20;;;;;;6152769;28;20459;-68
2021/12/17 13:26:18;;;;;;;17.65;6.68;;;10.20;51.30;;;;;;6174916;28;20519;-69
2021/12/17 13:29:25;;;;;;;16.33;7.35;;;10.10;51.30;;;;;;6157583;28;20035;-69
2021/12/17 13:32:28;;;;;;;16.70;7.68;;;10.10;51.40;;;;;;6200193;28;20034;-69
2021/12/17 13:35:33;;;;;;;16.50;6.60;;;10.00;51.50;;;;;;6227198;28;20045;-69
2021/12/17 13:38:34;;;;;;;19.00;7.85;;;10.00;51.70;;;;;;6245035;28;20213;-70
2021/12/17 13:41:43;;;;;;;16.08;6.68;;;9.90;51.70;;;;;;6244304;28;20363;-68
2021/12/17 13:44:52;;;;;;;15.65;7.07;;;10.00;51.80;;;;;;6248137;28;20361;-68
2021/12/17 13:47:56;;;;;;;17.17;7.78;;;10.00;51.90;;;;;;6244442;28;20274;-68
2021/12/17 13:50:57;;;;;;;16.75;7.55;;;10.00;51.80;;;;;;6233917;28;20112;-69
2021/12/17 13:53:58;;;;;;;15.35;7.22;;;10.00;51.70;;;;;;6269380;28;20326;-69
2021/12/17 13:57:01;;;;;;;22.30;9.40;;;10.00;51.70;;;;;;6268958;28;20047;-69
2021/12/17 14:00:15;;;;;;;19.08;7.47;;;10.00;51.80;;;;;;6268557;28;20045;-70
2021/12/17 14:03:19;;;;;;;14.57;7.03;;;10.00;51.80;;;;;;6238556;28;20106;-69
2021/12/17 14:06:28;;;;;;;17.08;7.32;;;10.00;51.70;;;;;;6245184;28;20129;-69
2021/12/17 14:09:29;;;;;;;15.45;7.25;;;9.90;51.70;;;;;;6245825;28;20107;-69
2021/12/17 14:12:33;;;;;;;18.38;7.63;;;9.90;52.00;;;;;;6244872;28;20458;-70
2021/12/17 14:15:35;;;;;;;18.20;7.70;;;9.90;52.00;;;;;;6232376;28;20030;-69
2021/12/17 14:18:36;;;;;;;11.88;6.35;;;9.80;52.00;;;;;;6220517;28;20108;-70
2021/12/17 14:21:37;;;;;;;19.48;8.38;;;9.80;52.20;;;;;;6244259;28;20036;-67
2021/12/17 14:24:38;;;;;;;12.27;6.57;;;9.80;52.20;;;;;;6246438;28;20033;-69
2021/12/17 14:27:47;;;;;;;19.05;7.40;;;9.80;52.20;;;;;;6265573;28;20037;-69
2021/12/17 14:31:04;;;;;;;16.42;7.43;;;9.80;52.10;;;;;;6244662;28;20447;-70
2021/12/17 14:34:07;;;;;;;15.63;6.78;;;9.80;52.20;;;;;;6243797;28;20383;-69
2021/12/17 14:37:08;;;;;;;16.85;7.72;;;9.70;52.20;;;;;;6219868;28;20104;-69
2021/12/17 14:40:56;;;;;;;14.90;6.88;;;9.80;52.30;;;;;;6223071;28;20088;-69
2021/12/17 14:44:03;;;;;;;16.67;7.13;;;9.80;52.30;;;;;;6217922;28;20145;-68
2021/12/17 14:47:16;;;;;;;18.30;8.82;;;9.70;52.20;;;;;;6219229;28;20030;-68
2021/12/17 15:00:34;;;;;;;19.70;6.90;;;9.50;52.80;;;;;;6266628;28;20108;-70
2021/12/17 15:03:42;;;;;;;17.70;7.22;;;9.60;52.90;;;;;;6257173;28;20037;-70
2021/12/17 15:06:43;;;;;;;15.48;6.95;;;9.60;52.80;;;;;;6248803;28;20149;-70
2021/12/17 15:09:46;;;;;;;12.32;7.05;;;9.70;52.80;;;;;;6223971;28;20033;-69
2021/12/17 15:12:47;;;;;;;19.58;8.85;;;9.70;52.80;;;;;;6241642;28;20111;-68
2021/12/17 15:15:49;;;;;;;17.38;8.43;;;9.70;52.80;;;;;;6248086;28;20053;-71
2021/12/17 15:18:50;;;;;;;17.00;7.78;;;9.70;52.90;;;;;;6248654;28;21390;-69
2021/12/17 15:21:51;;;;;;;19.40;8.32;;;9.70;52.90;;;;;;6251743;28;20072;-68
2021/12/17 15:24:52;;;;;;;16.33;7.13;;;9.60;52.90;;;;;;6248920;28;20041;-69
2021/12/17 15:27:53;;;;;;;17.48;7.55;;;9.60;52.90;;;;;;6250007;28;20056;-68
2021/12/17 15:31:02;;;;;;;15.05;7.15;;;9.50;53.00;;;;;;6248516;28;20053;-68
2021/12/17 15:34:04;;;;;;;16.38;8.85;;;9.40;53.10;;;;;;6246356;28;20466;-68
2021/12/17 15:37:05;;;;;;;18.23;8.18;;;9.40;53.20;;;;;;6249682;28;20064;-69
2021/12/17 15:40:07;;;;;;;21.50;8.98;;;9.30;53.30;;;;;;6248636;28;20041;-68
2021/12/17 15:43:09;;;;;;;23.73;10.70;;;9.30;53.50;;;;;;6247547;28;20030;-68
2021/12/17 15:46:10;;;;;;;19.38;7.80;;;9.20;53.60;;;;;;6247679;28;20462;-69
2021/12/17 15:49:12;;;;;;;18.50;7.38;;;9.20;53.70;;;;;;6247882;28;20042;-69
2021/12/17 15:52:13;;;;;;;18.88;7.82;;;9.20;53.70;;;;;;6263900;28;20048;-70
2021/12/17 15:55:23;;;;;;;16.30;7.53;;;9.20;53.80;;;;;;6272123;28;20044;-68
2021/12/17 15:58:25;;;;;;;18.58;8.02;;;9.20;53.80;;;;;;6272826;28;20036;-70
2021/12/17 16:01:26;;;;;;;19.33;8.52;;;9.20;54.50;;;;;;6256038;28;20029;-69
2021/12/17 16:04:30;;;;;;;16.65;7.07;;;9.10;53.90;;;;;;6243993;28;22279;-69
2021/12/17 16:07:31;;;;;;;23.98;7.97;;;9.20;54.00;;;;;;6246603;28;20033;-69
2021/12/17 16:17:59;;;;;;;18.63;7.53;;;9.20;53.90;;;;;;6246315;28;20056;-69
2021/12/17 16:23:55;;;;;;;21.92;8.63;;;9.10;54.00;;;;;;6266692;28;20037;-70
2021/12/17 16:26:56;;;;;;;35.38;13.07;;;9.10;54.30;;;;;;6270931;28;20055;-69
2021/12/17 16:29:57;;;;;;;23.73;9.93;;;9.10;54.30;;;;;;6272168;28;20033;-68
2021/12/17 16:32:59;;;;;;;23.98;9.88;;;9.10;54.30;;;;;;6260474;28;20065;-68
2021/12/17 16:36:02;;;;;;;19.23;8.48;;;9.20;54.30;;;;;;6245306;28;20049;-69
2021/12/17 16:39:06;;;;;;;17.58;8.00;;;9.20;54.70;;;;;;6245385;28;20096;-69
2021/12/17 16:42:15;;;;;;;14.88;7.30;;;9.20;54.10;;;;;;6245704;28;20041;-68
2021/12/17 16:48:17;;;;;;;20.08;7.57;;;9.20;54.00;;;;;;6243334;28;20041;-68
2021/12/17 16:51:20;;;;;;;16.48;7.55;;;9.20;54.00;;;;;;6253973;28;20033;-69
2021/12/17 16:54:21;;;;;;;18.63;7.97;;;9.10;54.00;;;;;;6270132;28;20037;-69
2021/12/17 16:57:23;;;;;;;19.30;6.95;;;9.00;54.00;;;;;;6271392;28;20021;-70
2021/12/17 17:00:24;;;;;;;17.77;7.72;;;9.00;54.20;;;;;;6269983;28;20163;-68
2021/12/17 17:03:26;;;;;;;17.90;7.43;;;8.90;54.30;;;;;;6255745;28;20041;-68
2021/12/17 17:06:27;;;;;;;17.42;8.65;;;8.80;54.40;;;;;;6228344;28;20358;-70
2021/12/17 17:09:29;;;;;;;24.08;8.00;;;8.80;54.60;;;;;;6238457;28;20064;-68
2021/12/17 17:12:31;;;;;;;21.17;8.15;;;8.90;54.70;;;;;;6243970;28;20041;-69
2021/12/17 17:15:36;;;;;;;15.82;8.05;;;8.90;54.70;;;;;;6221240;28;20040;-68
2021/12/17 17:18:39;;;;;;;15.88;6.35;;;8.90;54.70;;;;;;6237918;28;20041;-69
2021/12/17 17:21:40;;;;;;;18.85;7.57;;;8.90;54.50;;;;;;6255047;28;20114;-68
2021/12/17 17:24:42;;;;;;;17.42;6.53;;;8.90;54.50;;;;;;6268632;28;20116;-68
2021/12/17 17:27:43;;;;;;;18.10;6.05;;;8.80;54.60;;;;;;6244459;28;20348;-69
2021/12/17 17:30:45;;;;;;;19.23;8.80;;;8.70;54.70;;;;;;6270759;28;20041;-68
2021/12/17 17:33:49;;;;;;;23.88;9.60;;;8.70;54.80;;;;;;6253675;28;20025;-68
2021/12/17 17:36:50;;;;;;;24.52;9.77;;;8.80;54.90;;;;;;6246012;28;20050;-68
2021/12/17 17:39:51;;;;;;;21.08;8.77;;;8.70;54.90;;;;;;6246938;28;20091;-69
2021/12/17 17:42:52;;;;;;;35.00;15.25;;;8.70;55.00;;;;;;6267487;28;20042;-68
2021/12/17 17:45:53;;;;;;;20.50;10.57;;;8.80;55.00;;;;;;6243037;28;20033;-68
2021/12/17 17:48:55;;;;;;;23.95;10.77;;;8.80;55.00;;;;;;6245190;28;20427;-68
2021/12/17 17:51:56;;;;;;;19.88;8.23;;;8.80;54.90;;;;;;6259805;28;20347;-68
2021/12/17 17:54:58;;;;;;;22.45;7.70;;;8.90;55.00;;;;;;6252803;28;20038;-69
2021/12/17 17:57:59;;;;;;;16.85;7.68;;;8.90;55.00;;;;;;6246385;28;20053;-68
2021/12/17 18:01:01;;;;;;;16.52;7.65;;;8.90;54.90;;;;;;6271260;28;20040;-69
2021/12/17 18:04:02;;;;;;;19.75;8.73;;;8.90;54.90;;;;;;6251566;28;20099;-69
2021/12/17 18:07:05;;;;;;;21.50;8.18;;;8.90;54.90;;;;;;6244335;28;20042;-68
2021/12/17 18:10:06;;;;;;;23.08;10.10;;;8.90;54.90;;;;;;6232157;28;20099;-68
2021/12/17 18:13:10;;;;;;;31.63;10.65;;;8.90;54.90;;;;;;6220261;28;20431;-71
2021/12/17 18:16:11;;;;;;;37.30;13.32;;;8.90;54.90;;;;;;6221785;28;20068;-70
2021/12/17 18:19:12;;;;;;;24.88;9.45;;;8.90;55.00;;;;;;6218448;28;20132;-69
2021/12/17 18:22:13;;;;;;;21.45;8.90;;;8.90;55.00;;;;;;6250859;28;20040;-68
2021/12/17 18:25:16;;;;;;;27.05;11.05;;;8.90;54.90;;;;;;6245362;28;20029;-69
2021/12/17 18:28:17;;;;;;;39.50;14.82;;;8.90;54.90;;;;;;6241222;28;20030;-68
2021/12/17 18:31:18;;;;;;;42.95;15.75;;;8.90;55.00;;;;;;6244757;28;20021;-67
2021/12/17 18:34:19;;;;;;;46.25;16.73;;;9.00;55.00;;;;;;6244472;28;20038;-68
2021/12/17 18:37:21;;;;;;;37.50;15.77;;;9.00;54.90;;;;;;6249234;28;20117;-68
2021/12/17 18:40:25;;;;;;;41.30;16.92;;;9.00;54.90;;;;;;6249885;28;20451;-69
2021/12/17 18:46:49;;;;;;;39.35;10.85;;;9.00;54.90;;;;;;6247928;28;20045;-68
2021/12/17 18:49:50;;;;;;;26.95;10.95;;;9.00;54.80;;;;;;6248703;28;20037;-67
2021/12/17 18:52:52;;;;;;;28.65;11.63;;;9.00;54.80;;;;;;6270092;28;20442;-69
2021/12/17 18:55:53;;;;;;;23.02;11.43;;;8.90;54.70;;;;;;6272527;28;20422;-69
2021/12/17 18:58:55;;;;;;;31.08;12.15;;;8.90;54.90;;;;;;6240223;28;20116;-69
2021/12/17 19:01:57;;;;;;;34.60;14.20;;;8.80;54.90;;;;;;6224997;28;20517;-68
2021/12/17 19:04:58;;;;;;;27.23;11.15;;;8.80;55.00;;;;;;6241878;28;20045;-69
2021/12/17 19:07:59;;;;;;;34.13;13.02;;;8.80;55.00;;;;;;6249246;28;20095;-68
2021/12/17 19:11:01;;;;;;;32.88;12.93;;;8.80;55.10;;;;;;6249428;28;20369;-69
2021/12/17 19:14:03;;;;;;;18.52;7.65;;;8.80;55.10;;;;;;6255923;28;20049;-69
2021/12/17 19:17:05;;;;;;;17.02;7.32;;;8.80;55.10;;;;;;6250626;28;20065;-70
2021/12/17 19:20:16;;;;;;;19.35;7.43;;;8.70;55.10;;;;;;6248411;28;20533;-68
2021/12/17 19:23:17;;;;;;;20.05;8.52;;;8.70;55.20;;;;;;6247875;28;20037;-69
2021/12/17 19:26:18;;;;;;;22.83;8.70;;;8.60;55.30;;;;;;6249023;28;20044;-70
2021/12/17 19:29:23;;;;;;;14.90;7.22;;;8.60;55.50;;;;;;6244270;28;20033;-70
2021/12/17 19:32:24;;;;;;;24.33;10.20;;;8.50;55.60;;;;;;6266811;28;20050;-70
2021/12/17 19:35:26;;;;;;;22.35;9.82;;;8.40;55.70;;;;;;6248026;28;20118;-70
2021/12/17 19:38:27;;;;;;;24.58;9.52;;;8.40;55.90;;;;;;6247768;28;20033;-69